createdAt,value
2019-03-18T00:02:04.696Z,2.52
2019-03-18T00:04:31.800Z,2.43
2019-03-18T00:06:59.317Z,2.30
2019-03-18T00:09:26.841Z,2.20
2019-03-18T00:11:54.018Z,2.15
2019-03-18T00:14:21.204Z,2.20
2019-03-18T00:16:48.518Z,2.41
2019-03-18T00:19:15.989Z,2.46
2019-03-18T00:21:44.136Z,2.36
2019-03-18T00:24:11.456Z,2.20
2019-03-18T00:26:38.646Z,2.11
2019-03-18T00:29:06.092Z,2.19
2019-03-18T00:31:33.313Z,2.09
2019-03-18T00:34:00.572Z,2.01
2019-03-18T00:36:27.870Z,1.89
2019-03-18T00:38:55.066Z,1.79
2019-03-18T00:41:22.238Z,1.71
2019-03-18T00:43:49.420Z,1.61
2019-03-18T00:46:16.645Z,1.66
2019-03-18T00:48:43.806Z,1.77
2019-03-18T00:51:11.256Z,1.78
2019-03-18T00:53:38.413Z,1.95
2019-03-18T00:56:06.872Z,1.90
2019-03-18T00:58:34.055Z,1.87
2019-03-18T01:01:01.227Z,1.87
2019-03-18T01:03:28.723Z,1.85
2019-03-18T01:05:55.821Z,1.69
2019-03-18T01:08:23.017Z,1.74
2019-03-18T01:10:50.617Z,1.77
2019-03-18T01:13:18.472Z,1.91
2019-03-18T01:15:45.637Z,1.97
2019-03-18T01:18:12.799Z,2.00
2019-03-18T01:20:40.203Z,2.03
2019-03-18T01:23:07.408Z,2.08
2019-03-18T01:25:34.591Z,2.16
2019-03-18T01:28:01.828Z,2.04
2019-03-18T01:30:29.323Z,1.90
2019-03-18T01:32:56.829Z,1.96
2019-03-18T01:35:24.175Z,1.94
2019-03-18T01:37:51.588Z,1.93
2019-03-18T01:40:18.840Z,1.79
2019-03-18T01:42:46.043Z,1.82
2019-03-18T01:45:13.348Z,1.87
2019-03-18T01:47:40.485Z,1.81
2019-03-18T01:50:08.355Z,1.80
2019-03-18T01:52:35.540Z,1.69
2019-03-18T01:55:03.045Z,2.01
2019-03-18T01:57:30.359Z,2.33
2019-03-18T01:59:57.929Z,2.25
2019-03-18T02:02:25.167Z,2.20
2019-03-18T02:04:52.387Z,2.09
2019-03-18T02:07:19.547Z,2.20
2019-03-18T02:09:46.827Z,2.12
2019-03-18T02:12:14.080Z,2.10
2019-03-18T02:18:01.003Z,2.29
2019-03-18T02:20:40.610Z,2.42
2019-03-18T02:25:48.254Z,2.42
2019-03-18T02:28:27.296Z,2.36
2019-03-18T02:30:54.751Z,2.25
2019-03-18T02:33:22.735Z,2.29
2019-03-18T02:35:50.036Z,2.37
2019-03-18T02:38:17.981Z,2.25
2019-03-18T02:40:51.709Z,2.17
2019-03-18T02:43:21.294Z,2.05
2019-03-18T02:45:48.457Z,1.86
2019-03-18T02:48:19.880Z,1.83
2019-03-18T02:50:47.013Z,1.77
2019-03-18T02:53:14.212Z,1.75
2019-03-18T02:55:43.977Z,1.93
2019-03-18T02:58:11.237Z,2.17
2019-03-18T03:00:38.560Z,2.41
2019-03-18T03:03:06.240Z,2.57
2019-03-18T03:05:33.512Z,2.72
2019-03-18T03:08:01.722Z,2.77
2019-03-18T03:10:29.103Z,2.90
2019-03-18T03:12:56.318Z,2.96
2019-03-18T03:15:23.540Z,3.18
2019-03-18T03:17:50.673Z,3.46
2019-03-18T03:20:17.974Z,3.66
2019-03-18T03:25:26.099Z,3.73
2019-03-18T03:27:53.296Z,3.71
2019-03-18T03:36:22.983Z,3.78
2019-03-18T03:38:50.171Z,3.78
2019-03-18T03:41:18.217Z,3.96
2019-03-18T03:43:52.773Z,4.02
2019-03-18T03:46:19.945Z,4.12
2019-03-18T03:49:27.848Z,4.09
2019-03-18T03:55:40.069Z,4.26
2019-03-18T03:58:07.237Z,4.35
2019-03-18T04:00:34.452Z,4.30
2019-03-18T04:03:01.536Z,4.25
2019-03-18T04:05:29.084Z,4.28
2019-03-18T04:07:56.235Z,4.35
2019-03-18T04:10:23.477Z,4.33
2019-03-18T04:12:50.933Z,4.32
2019-03-18T04:15:18.128Z,4.32
2019-03-18T04:18:26.052Z,4.30
2019-03-18T04:30:20.631Z,4.46
2019-03-18T04:36:07.509Z,4.53
2019-03-18T04:39:15.525Z,4.53
2019-03-18T04:41:42.737Z,4.58
2019-03-18T04:44:29.359Z,4.57
2019-03-18T04:49:58.010Z,4.46
2019-03-18T04:52:26.963Z,4.41
2019-03-18T04:54:54.131Z,4.51
2019-03-18T04:58:02.142Z,4.47
2019-03-18T05:07:03.590Z,4.59
2019-03-18T05:10:11.615Z,4.61
2019-03-18T05:12:38.861Z,4.63
2019-03-18T05:15:06.428Z,4.73
2019-03-18T05:17:33.516Z,4.71
2019-03-18T05:20:20.478Z,4.72
2019-03-18T05:22:47.566Z,4.79
2019-03-18T05:25:14.616Z,4.79
2019-03-18T05:27:41.747Z,4.78
2019-03-18T05:30:08.924Z,4.81
2019-03-18T05:32:36.014Z,4.91
2019-03-18T05:35:44.069Z,4.97
2019-03-18T05:44:32.984Z,4.85
2019-03-18T05:47:40.975Z,4.63
2019-03-18T05:50:39.971Z,4.51
2019-03-18T05:53:07.155Z,4.47
2019-03-18T05:55:34.336Z,4.56
2019-03-18T05:58:01.567Z,4.70
2019-03-18T06:04:03.233Z,5.17
2019-03-18T06:06:30.429Z,5.66
2019-03-18T06:08:57.609Z,5.73
2019-03-18T06:11:24.845Z,5.72
2019-03-18T06:13:52.002Z,6.05
2019-03-18T06:16:38.805Z,6.30
2019-03-18T06:19:06.028Z,6.29
2019-03-18T06:21:33.224Z,6.33
2019-03-18T06:27:02.315Z,7.49
2019-03-18T06:29:29.563Z,8.80
2019-03-18T06:31:57.212Z,9.22
2019-03-18T06:35:05.241Z,9.63
2019-03-18T06:40:11.472Z,8.40
2019-03-18T06:42:38.640Z,7.92
2019-03-18T06:45:06.106Z,7.60
2019-03-18T06:47:33.318Z,7.38
2019-03-18T06:50:00.535Z,7.19
2019-03-18T06:53:08.548Z,7.11
2019-03-18T07:01:57.777Z,6.97
2019-03-18T07:04:24.943Z,6.80
2019-03-18T07:06:52.072Z,6.81
2019-03-18T07:09:19.660Z,6.95
2019-03-18T07:20:14.766Z,8.46
2019-03-18T07:29:18.119Z,9.07
2019-03-18T07:37:48.444Z,8.05
2019-03-18T07:40:15.758Z,7.72
2019-03-18T07:42:42.938Z,7.62
2019-03-18T07:45:10.169Z,7.65
2019-03-18T07:47:37.325Z,7.74
2019-03-18T07:50:45.678Z,7.87
2019-03-18T07:57:06.655Z,8.11
2019-03-18T08:02:46.951Z,8.13
2019-03-18T08:05:14.163Z,8.04
2019-03-18T08:07:41.419Z,8.01
2019-03-18T08:16:23.141Z,8.01
2019-03-18T08:22:10.152Z,8.22
2019-03-18T08:24:37.380Z,8.45
2019-03-18T08:30:17.726Z,8.46
2019-03-18T08:32:47.955Z,8.35
2019-03-18T08:35:15.536Z,8.32
2019-03-18T08:41:03.287Z,8.37
2019-03-18T08:46:32.139Z,8.33
2019-03-18T08:49:31.227Z,8.55
2019-03-18T08:52:30.492Z,8.75
2019-03-18T08:54:57.747Z,9.08
2019-03-18T08:58:05.812Z,9.60
2019-03-18T09:00:33.021Z,9.95
2019-03-18T09:03:00.079Z,10.29
2019-03-18T09:05:27.974Z,10.87
2019-03-18T09:08:55.832Z,11.14
2019-03-18T09:11:42.772Z,10.90
2019-03-18T10:18:53.759Z,13.34
2019-03-18T10:21:20.974Z,13.01
2019-03-18T10:23:48.148Z,13.07
2019-03-18T10:26:27.415Z,13.10
2019-03-18T10:31:32.104Z,13.48
2019-03-18T10:37:00.717Z,13.86
2019-03-18T10:39:27.989Z,13.73
2019-03-18T10:44:47.171Z,13.73
2019-03-18T10:50:14.872Z,14.03
2019-03-18T10:52:42.168Z,14.25
2019-03-18T11:01:11.664Z,14.58
2019-03-18T11:03:39.168Z,14.61
2019-03-18T11:06:14.385Z,14.84
2019-03-18T11:12:15.103Z,14.63
2019-03-18T11:17:43.679Z,14.54
2019-03-18T11:20:10.890Z,14.52
2019-03-18T11:25:39.182Z,14.90
2019-03-18T11:28:06.376Z,14.56
2019-03-18T11:33:35.061Z,13.26
2019-03-18T11:36:02.454Z,12.75
2019-03-18T11:38:31.864Z,12.32
2019-03-18T11:41:59.367Z,11.70
2019-03-18T11:44:26.981Z,10.62
2019-03-18T11:46:54.150Z,9.28
2019-03-18T11:49:21.412Z,8.51
2019-03-18T11:54:26.395Z,7.41
2019-03-18T11:57:01.738Z,7.20
2019-03-18T11:59:31.138Z,7.12
2019-03-18T12:02:39.403Z,7.07
2019-03-18T12:05:21.218Z,7.01
2019-03-18T12:07:48.377Z,7.17
2019-03-18T12:10:15.539Z,7.34
2019-03-18T12:15:57.286Z,7.49
2019-03-18T12:18:24.446Z,7.59
2019-03-18T12:20:51.566Z,7.88
2019-03-18T12:23:38.636Z,8.12
2019-03-18T12:26:05.850Z,8.33
2019-03-18T12:28:33.014Z,8.36
2019-03-18T12:31:00.256Z,8.22
2019-03-18T12:39:56.747Z,8.09
2019-03-18T12:42:24.329Z,8.35
2019-03-18T12:44:51.604Z,8.78
2019-03-18T12:47:20.630Z,9.07
2019-03-18T12:49:47.929Z,9.18
2019-03-18T12:52:36.549Z,9.37
2019-03-18T12:58:24.878Z,9.75
2019-03-18T13:03:52.931Z,9.80
2019-03-18T13:06:20.165Z,9.76
2019-03-18T13:11:48.116Z,9.60
2019-03-18T13:14:15.347Z,9.63
2019-03-18T13:16:54.324Z,9.71
2019-03-18T13:22:21.969Z,9.88
2019-03-18T13:24:49.269Z,10.02
2019-03-18T13:27:28.524Z,10.36
2019-03-18T13:29:55.723Z,10.70
2019-03-18T13:33:03.800Z,11.07
2019-03-18T13:41:51.016Z,11.87
2019-03-18T13:44:37.672Z,12.23
2019-03-18T13:47:36.726Z,12.10
2019-03-18T13:59:32.085Z,11.04
2019-03-18T14:02:01.126Z,11.01
2019-03-18T14:04:28.191Z,11.19
2019-03-18T14:07:16.672Z,11.52
2019-03-18T14:09:44.122Z,11.89
2019-03-18T14:12:43.107Z,12.30
2019-03-18T14:18:57.541Z,12.63
2019-03-18T14:21:33.342Z,12.61
2019-03-18T14:24:00.105Z,12.34
2019-03-18T14:26:27.325Z,12.08
2019-03-18T14:28:54.549Z,11.76
2019-03-18T14:34:23.313Z,11.20
2019-03-18T14:36:50.551Z,10.87
2019-03-18T14:39:17.779Z,10.59
2019-03-18T14:41:45.353Z,10.33
2019-03-18T14:48:04.906Z,10.00
2019-03-18T14:50:31.979Z,9.90
2019-03-18T14:52:59.185Z,10.07
2019-03-18T14:58:40.033Z,10.09
2019-03-18T15:04:40.984Z,10.44
2019-03-18T15:07:08.206Z,10.40
2019-03-18T15:12:48.633Z,10.01
2019-03-18T15:18:36.382Z,9.59
2019-03-18T15:21:03.519Z,9.73
2019-03-18T15:23:30.718Z,9.84
2019-03-18T15:25:58.009Z,10.05
2019-03-18T15:28:25.315Z,10.18
2019-03-18T15:30:52.550Z,10.32
2019-03-18T15:33:19.769Z,10.40
2019-03-18T15:35:46.831Z,10.43
2019-03-18T15:38:23.927Z,10.53
2019-03-18T15:40:51.387Z,10.46
2019-03-18T15:43:18.474Z,10.26
2019-03-18T15:45:45.588Z,10.00
2019-03-18T15:48:12.674Z,9.66
2019-03-18T15:50:39.760Z,9.50
2019-03-18T15:53:06.945Z,9.51
2019-03-18T15:55:34.161Z,9.42
2019-03-18T15:58:01.320Z,9.23
2019-03-18T16:00:28.592Z,9.10
2019-03-18T16:02:55.905Z,8.96
2019-03-18T16:05:23.071Z,8.93
2019-03-18T16:07:50.401Z,8.81
2019-03-18T16:10:17.660Z,8.83
2019-03-18T16:12:44.855Z,9.03
2019-03-18T16:15:12.196Z,9.24
2019-03-18T16:17:41.527Z,9.33
2019-03-18T16:20:09.872Z,9.46
2019-03-18T16:22:37.490Z,9.51
2019-03-18T16:25:04.654Z,9.48
2019-03-18T16:27:32.179Z,9.48
2019-03-18T16:29:59.375Z,9.49
2019-03-18T16:32:26.565Z,9.53
2019-03-18T16:34:53.859Z,9.59
2019-03-18T16:37:21.477Z,9.62
2019-03-18T16:39:48.695Z,9.63
2019-03-18T16:42:15.877Z,9.69
2019-03-18T16:44:44.015Z,9.68
2019-03-18T16:47:11.191Z,9.64
2019-03-18T16:49:38.381Z,9.58
2019-03-18T16:52:05.560Z,9.51
2019-03-18T16:54:33.156Z,9.31
2019-03-18T16:57:00.365Z,9.06
2019-03-18T16:59:28.220Z,8.83
2019-03-18T17:01:55.513Z,8.60
2019-03-18T17:04:23.114Z,8.43
2019-03-18T17:06:50.236Z,8.17
2019-03-18T17:09:17.767Z,8.04
2019-03-18T17:11:44.827Z,7.76
2019-03-18T17:14:12.036Z,7.49
2019-03-18T17:16:39.602Z,7.31
2019-03-18T17:19:06.759Z,7.19
2019-03-18T17:21:34.067Z,7.03
2019-03-18T17:24:01.246Z,6.81
2019-03-18T17:26:28.522Z,6.75
2019-03-18T17:28:55.843Z,6.61
2019-03-18T17:31:23.132Z,6.46
2019-03-18T17:33:50.302Z,6.38
2019-03-18T17:36:17.852Z,6.35
2019-03-18T17:38:45.446Z,6.30
2019-03-18T17:41:12.619Z,6.24
2019-03-18T17:43:39.876Z,6.08
2019-03-18T17:46:07.071Z,5.97
2019-03-18T17:48:34.243Z,5.83
2019-03-18T17:51:01.377Z,5.68
2019-03-18T17:53:28.447Z,5.66
2019-03-18T17:55:55.752Z,5.74
2019-03-18T17:58:22.962Z,5.86
2019-03-18T18:00:51.615Z,5.97
2019-03-18T18:03:18.811Z,6.00
2019-03-18T18:05:45.951Z,5.96
2019-03-18T18:08:13.441Z,5.98
2019-03-18T18:10:40.672Z,5.94
2019-03-18T18:13:07.889Z,5.91
2019-03-18T18:15:35.717Z,5.94
2019-03-18T18:18:02.797Z,5.87
2019-03-18T18:20:29.952Z,5.91
2019-03-18T18:22:57.375Z,5.75
2019-03-18T18:25:24.560Z,5.71
2019-03-18T18:27:51.798Z,5.66
2019-03-18T18:30:19.261Z,5.55
2019-03-18T18:32:46.641Z,5.49
2019-03-18T18:35:13.763Z,5.34
2019-03-18T18:37:41.096Z,5.22
2019-03-18T18:40:09.645Z,5.06
2019-03-18T18:42:36.883Z,5.03
2019-03-18T18:45:04.695Z,5.03
2019-03-18T18:47:31.901Z,5.09
2019-03-18T18:49:59.797Z,5.12
2019-03-18T18:52:27.024Z,5.13
2019-03-18T18:54:54.290Z,5.19
2019-03-18T18:57:21.557Z,5.09
2019-03-18T18:59:48.742Z,5.06
2019-03-18T19:02:15.971Z,5.01
2019-03-18T19:04:44.365Z,4.93
2019-03-18T19:07:11.554Z,4.84
2019-03-18T19:09:38.732Z,4.90
2019-03-18T19:12:06.293Z,4.92
2019-03-18T19:14:33.494Z,4.92
2019-03-18T19:17:00.583Z,5.01
2019-03-18T19:19:27.958Z,4.96
2019-03-18T19:21:55.126Z,4.86
2019-03-18T19:24:22.682Z,4.93
2019-03-18T19:26:50.324Z,4.88
2019-03-18T19:29:17.850Z,4.71
2019-03-18T19:31:45.073Z,4.61
2019-03-18T19:34:12.598Z,4.46
2019-03-18T19:36:39.883Z,4.32
2019-03-18T19:39:07.073Z,4.34
2019-03-18T19:41:34.390Z,4.44
2019-03-18T19:44:01.627Z,4.41
2019-03-18T19:46:29.598Z,4.37
2019-03-18T19:48:56.958Z,4.45
2019-03-18T19:51:24.162Z,4.57
2019-03-18T19:53:51.481Z,4.55
2019-03-18T19:56:18.689Z,4.52
2019-03-18T19:58:45.801Z,4.69
2019-03-18T20:01:13.000Z,4.85
2019-03-18T20:03:40.249Z,4.70
2019-03-18T20:06:07.556Z,4.59
2019-03-18T20:08:34.793Z,4.56
2019-03-18T20:11:01.992Z,4.52
2019-03-18T20:13:29.222Z,4.62
2019-03-18T20:15:56.294Z,4.72
2019-03-18T20:18:23.497Z,4.77
2019-03-18T20:20:50.558Z,4.69
2019-03-18T20:23:17.896Z,4.59
2019-03-18T20:25:45.569Z,4.55
2019-03-18T20:28:13.124Z,4.62
2019-03-18T20:30:40.352Z,4.59
2019-03-18T20:33:07.456Z,4.51
2019-03-18T20:35:34.545Z,4.42
2019-03-18T20:38:01.786Z,4.36
2019-03-18T20:40:29.060Z,4.30
2019-03-18T20:42:56.272Z,4.23
2019-03-18T20:45:23.487Z,4.13
2019-03-18T20:47:50.702Z,4.07
2019-03-18T20:50:18.006Z,3.99
2019-03-18T20:52:45.485Z,3.92
2019-03-18T20:55:13.156Z,3.91
2019-03-18T20:57:40.532Z,3.92
2019-03-18T21:00:08.999Z,3.90
2019-03-18T21:02:36.222Z,3.83
2019-03-18T21:05:04.532Z,3.74
2019-03-18T21:07:31.711Z,3.65
2019-03-18T21:09:58.961Z,3.54
2019-03-18T21:12:26.603Z,3.45
2019-03-18T21:14:53.762Z,3.39
2019-03-18T21:17:20.909Z,3.42
2019-03-18T21:19:48.093Z,3.44
2019-03-18T21:22:15.263Z,3.41
2019-03-18T21:24:43.947Z,3.34
2019-03-18T21:27:11.145Z,3.32
2019-03-18T21:29:38.427Z,3.30
2019-03-18T21:32:05.615Z,3.28
2019-03-18T21:34:32.865Z,3.26
2019-03-18T21:37:00.391Z,3.23
2019-03-18T21:39:27.992Z,3.23
2019-03-18T21:41:55.156Z,3.21
2019-03-18T21:44:23.825Z,3.25
2019-03-18T21:46:51.298Z,3.31
2019-03-18T21:49:18.496Z,3.32
2019-03-18T21:51:46.005Z,3.30
2019-03-18T21:54:14.307Z,3.24
2019-03-18T21:56:41.544Z,3.14
2019-03-18T21:59:08.782Z,3.06
2019-03-18T22:01:36.170Z,2.96
2019-03-18T22:04:03.278Z,2.89
2019-03-18T22:06:30.891Z,2.82
2019-03-18T22:08:58.066Z,2.75
2019-03-18T22:11:25.286Z,2.74
2019-03-18T22:13:52.817Z,2.75
2019-03-18T22:16:20.023Z,2.73
2019-03-18T22:18:47.245Z,2.68
2019-03-18T22:21:14.437Z,2.74
2019-03-18T22:23:41.644Z,2.68
2019-03-18T22:26:08.841Z,2.54
2019-03-18T22:28:35.999Z,2.38
2019-03-18T22:31:04.325Z,2.29
2019-03-18T22:33:31.587Z,2.23
2019-03-18T22:35:58.896Z,2.18
2019-03-18T22:38:26.155Z,2.37
2019-03-18T22:40:53.417Z,2.49
2019-03-18T22:43:20.673Z,2.43
2019-03-18T22:45:47.803Z,2.31
2019-03-18T22:48:15.315Z,2.26
2019-03-18T22:50:42.768Z,2.21
2019-03-18T22:53:10.001Z,2.34
2019-03-18T22:55:37.203Z,2.65
2019-03-18T22:58:04.364Z,2.64
2019-03-18T23:00:44.577Z,2.46
2019-03-18T23:03:12.032Z,2.26
2019-03-18T23:05:39.122Z,2.08
2019-03-18T23:08:06.371Z,1.91
2019-03-18T23:10:33.767Z,1.78
2019-03-18T23:13:01.256Z,1.67
2019-03-18T23:15:28.583Z,1.57
2019-03-18T23:17:55.624Z,1.51
2019-03-18T23:20:22.804Z,1.63
2019-03-18T23:22:50.022Z,1.80
2019-03-18T23:25:17.274Z,1.80
2019-03-18T23:27:44.364Z,1.73
2019-03-18T23:30:11.690Z,1.67
2019-03-18T23:32:38.923Z,1.59
2019-03-18T23:35:06.896Z,1.56
2019-03-18T23:37:34.077Z,1.54
2019-03-18T23:40:01.611Z,1.56
2019-03-18T23:42:28.994Z,1.56
2019-03-18T23:44:56.219Z,1.55
2019-03-18T23:47:23.818Z,1.48
2019-03-18T23:49:51.176Z,1.42
2019-03-18T23:52:18.498Z,1.42
2019-03-18T23:54:45.766Z,1.42
2019-03-18T23:57:13.060Z,1.43
2019-03-18T23:59:40.487Z,1.35
